Time;durP1;ratioP1;P1;durP2;ratioP2;P2;SDS_P1;SDS_P2;PMS_P1;PMS_P2;Temp;Humidity;BMP_temperature;BMP_pressure;BME280_temperature;BME280_humidity;BME280_pressure;Samples;Min_cycle;Max_cycle;Signal;HPM_P1;HPM_P2
2022/12/26 00:00:24;;;;;;;11.85;8.07;;;3.80;99.90;;;;;;6211046;23;20059;-63
2022/12/26 00:02:56;;;;;;;12.70;8.23;;;3.80;99.90;;;;;;6209610;23;20062;-64
2022/12/26 00:05:35;;;;;;;11.13;7.85;;;3.80;99.90;;;;;;6235400;23;20013;-66
2022/12/26 00:08:06;;;;;;;13.02;8.00;;;3.80;99.90;;;;;;6209172;23;19999;-64
2022/12/26 00:10:40;;;;;;;19.90;10.20;;;3.80;99.90;;;;;;6233119;23;20000;-65
2022/12/26 00:13:15;;;;;;;18.87;10.43;;;3.80;99.90;;;;;;6233268;23;20010;-65
2022/12/26 00:15:46;;;;;;;17.70;10.63;;;3.70;99.90;;;;;;6233589;23;20218;-64
2022/12/26 00:18:20;;;;;;;20.27;10.68;;;3.80;99.90;;;;;;6233067;23;20011;-65
2022/12/26 00:20:51;;;;;;;18.52;10.93;;;3.80;99.90;;;;;;6209585;23;20007;-64
2022/12/26 00:23:22;;;;;;;20.55;11.23;;;3.90;99.90;;;;;;6232367;23;20052;-64
2022/12/26 00:25:54;;;;;;;19.40;10.30;;;3.90;99.90;;;;;;6259162;23;20003;-64
2022/12/26 00:28:25;;;;;;;19.95;10.00;;;4.00;99.90;;;;;;6232876;23;20007;-66
2022/12/26 00:30:57;;;;;;;16.02;10.23;;;4.00;99.90;;;;;;6234982;23;20014;-65
2022/12/26 00:33:31;;;;;;;16.85;10.30;;;4.00;99.90;;;;;;6208933;23;20063;-64
2022/12/26 00:36:07;;;;;;;16.13;9.57;;;4.00;99.90;;;;;;6258688;23;20090;-65
2022/12/26 00:38:47;;;;;;;18.70;10.20;;;4.10;99.90;;;;;;6234355;23;20014;-65
2022/12/26 00:41:20;;;;;;;17.27;10.30;;;4.10;99.90;;;;;;6209440;23;20007;-65
2022/12/26 00:43:57;;;;;;;15.45;9.38;;;4.10;99.90;;;;;;6209399;23;20009;-65
2022/12/26 00:46:30;;;;;;;14.18;8.93;;;4.10;99.90;;;;;;6211317;23;20299;-64
2022/12/26 00:49:07;;;;;;;12.40;8.88;;;4.20;99.90;;;;;;6233592;23;20360;-64
2022/12/26 00:51:38;;;;;;;15.38;9.65;;;4.20;99.90;;;;;;6208232;23;20013;-65
2022/12/26 00:54:12;;;;;;;14.85;8.73;;;4.10;99.90;;;;;;6186250;23;20251;-65
2022/12/26 00:56:52;;;;;;;13.50;8.43;;;4.10;99.90;;;;;;6208615;23;20003;-65
2022/12/26 00:59:23;;;;;;;12.95;8.48;;;4.10;99.90;;;;;;6242638;23;20009;-65
2022/12/26 01:01:57;;;;;;;13.48;9.05;;;4.10;99.90;;;;;;6200611;23;20071;-68
2022/12/26 01:04:28;;;;;;;16.08;10.20;;;4.00;99.90;;;;;;6231889;23;19995;-65
2022/12/26 01:07:04;;;;;;;15.38;8.80;;;4.00;99.90;;;;;;6291314;23;20012;-66
2022/12/26 01:09:38;;;;;;;17.90;9.70;;;4.10;99.90;;;;;;6315390;23;19998;-68
2022/12/26 01:12:11;;;;;;;14.77;9.23;;;4.20;99.90;;;;;;6302884;23;20050;-66
2022/12/26 01:14:45;;;;;;;14.80;8.95;;;4.30;99.90;;;;;;6342051;23;19997;-70
2022/12/26 01:17:16;;;;;;;16.13;9.80;;;4.40;99.90;;;;;;6268432;23;20051;-67
2022/12/26 01:19:50;;;;;;;16.48;9.25;;;4.30;99.90;;;;;;6270375;23;20015;-69
2022/12/26 01:22:26;;;;;;;14.27;9.15;;;4.20;99.90;;;;;;6340235;23;20028;-66
2022/12/26 01:24:59;;;;;;;19.10;9.40;;;4.10;99.90;;;;;;6315585;23;20058;-65
2022/12/26 01:27:33;;;;;;;15.88;8.90;;;4.10;99.90;;;;;;6294241;23;20053;-68
2022/12/26 01:30:07;;;;;;;13.75;8.25;;;4.10;99.90;;;;;;6291949;23;20002;-66
2022/12/26 01:32:38;;;;;;;16.25;8.63;;;4.10;99.90;;;;;;6268306;23;20020;-69
2022/12/26 01:35:10;;;;;;;13.70;8.48;;;4.00;99.90;;;;;;6293886;23;20180;-67
2022/12/26 01:37:41;;;;;;;14.98;9.15;;;4.10;99.90;;;;;;6266442;23;19994;-66
2022/12/26 01:40:15;;;;;;;16.52;9.90;;;4.10;99.90;;;;;;6304443;23;20077;-66
2022/12/26 01:42:46;;;;;;;;;;;4.20;99.90;;;;;;6295484;23;20049;-68
2022/12/26 01:45:32;;;;;;;18.33;8.77;;;4.20;99.90;;;;;;6295015;23;19897;-68
2022/12/26 01:48:17;;;;;;;18.10;8.10;;;4.30;99.90;;;;;;6269469;23;20639;-67
2022/12/26 01:50:54;;;;;;;14.27;9.35;;;4.30;99.90;;;;;;6295115;23;20050;-66
2022/12/26 01:53:36;;;;;;;14.95;8.88;;;4.30;99.90;;;;;;6269940;23;20218;-65
2022/12/26 01:56:13;;;;;;;15.10;9.23;;;4.30;99.90;;;;;;6340833;23;20330;-65
2022/12/26 01:58:55;;;;;;;14.13;8.73;;;4.30;99.90;;;;;;6295302;23;20203;-66
2022/12/26 02:01:31;;;;;;;17.35;9.07;;;4.20;99.90;;;;;;6315450;23;20050;-66
2022/12/26 02:07:05;;;;;;;12.75;8.70;;;4.20;99.90;;;;;;6279239;23;20015;-68
2022/12/26 02:09:40;;;;;;;16.27;9.70;;;4.30;99.90;;;;;;6295720;23;20393;-67
2022/12/26 02:12:25;;;;;;;14.60;8.85;;;4.30;99.90;;;;;;6295717;23;19994;-67
2022/12/26 02:14:57;;;;;;;15.05;9.13;;;4.40;99.90;;;;;;6294830;23;20058;-68
2022/12/26 02:17:30;;;;;;;13.40;8.45;;;4.40;99.90;;;;;;6291950;23;20546;-67
2022/12/26 02:20:04;;;;;;;15.80;9.75;;;4.40;99.90;;;;;;6295216;23;20386;-68
2022/12/26 02:22:53;;;;;;;15.20;9.15;;;4.50;99.90;;;;;;6269295;23;20006;-67
2022/12/26 02:25:40;;;;;;;15.45;9.38;;;4.50;99.90;;;;;;6269699;23;20005;-66
2022/12/26 02:28:46;;;;;;;15.55;9.55;;;4.60;99.90;;;;;;6295529;23;20061;-68
2022/12/26 02:31:38;;;;;;;18.42;11.00;;;4.50;99.90;;;;;;6292872;23;20006;-67
2022/12/26 02:34:32;;;;;;;16.42;9.65;;;4.50;99.90;;;;;;6421274;23;20441;-66
2022/12/26 02:37:24;;;;;;;14.27;9.15;;;4.50;99.90;;;;;;6295381;23;20024;-69
2022/12/26 02:40:17;;;;;;;20.75;9.23;;;4.50;99.90;;;;;;6295066;23;20021;-67
2022/12/26 02:43:27;;;;;;;14.48;8.82;;;4.40;99.90;;;;;;6305142;23;20125;-69
2022/12/26 02:49:15;;;;;;;14.07;9.23;;;4.40;99.90;;;;;;6316573;23;20054;-67
2022/12/26 03:13:15;;;;;;;15.60;8.60;;;4.70;99.90;;;;;;6315643;23;20007;-67
2022/12/26 03:18:49;;;;;;;13.60;9.00;;;4.70;99.90;;;;;;6293186;23;20462;-66
2022/12/26 03:21:24;;;;;;;13.90;8.95;;;4.60;99.90;;;;;;6291086;23;19994;-67
2022/12/26 03:23:56;;;;;;;15.05;9.02;;;4.60;99.90;;;;;;6290481;23;20218;-65
2022/12/26 03:26:42;;;;;;;16.17;10.23;;;4.50;99.90;;;;;;6303254;23;20045;-65
2022/12/26 03:32:17;;;;;;;17.45;10.23;;;4.50;99.90;;;;;;6294968;23;20323;-67
2022/12/26 03:34:48;;;;;;;15.98;10.93;;;4.60;99.90;;;;;;6394098;23;20353;-66
2022/12/26 03:37:38;;;;;;;19.90;10.65;;;4.70;99.90;;;;;;6292037;23;20012;-67
2022/12/26 04:20:30;;;;;;;60.40;15.43;;;4.80;99.90;;;;;;6294368;23;19999;-67
2022/12/26 04:46:47;;;;;;;50.88;16.70;;;5.20;99.90;;;;;;6295229;23;20046;-67
2022/12/26 04:52:14;;;;;;;63.63;16.23;;;5.30;99.90;;;;;;6304416;23;19991;-66
2022/12/26 04:54:45;;;;;;;65.50;17.30;;;5.40;99.90;;;;;;6315704;23;19995;-65
2022/12/26 04:57:19;;;;;;;38.30;16.58;;;5.40;99.90;;;;;;6292736;23;20005;-69
2022/12/26 04:59:50;;;;;;;56.00;15.60;;;5.30;99.90;;;;;;6292048;23;20017;-66
2022/12/26 05:10:57;;;;;;;57.67;15.38;;;5.50;99.90;;;;;;6294460;23;20053;-66
2022/12/26 05:13:34;;;;;;;86.50;16.00;;;5.60;99.90;;;;;;6293557;23;20002;-66
2022/12/26 05:30:39;;;;;;;37.03;14.77;;;5.40;99.90;;;;;;6294952;23;20517;-68
2022/12/26 05:36:02;;;;;;;51.03;15.57;;;5.60;99.90;;;;;;6295603;23;20049;-66
2022/12/26 05:38:34;;;;;;;41.15;14.48;;;5.70;99.90;;;;;;6318251;23;20012;-66
2022/12/26 05:41:11;;;;;;;83.50;15.38;;;5.70;99.90;;;;;;6396433;23;20005;-67
2022/12/26 05:43:44;;;;;;;30.58;15.13;;;5.70;99.90;;;;;;6293354;23;19998;-66
2022/12/26 05:46:18;;;;;;;56.58;16.30;;;5.60;99.90;;;;;;6293982;23;20174;-67
2022/12/26 05:48:52;;;;;;;44.28;15.05;;;5.60;99.90;;;;;;6395024;23;20317;-66
2022/12/26 05:51:24;;;;;;;62.42;14.18;;;5.60;99.90;;;;;;6293880;23;19999;-66
2022/12/26 05:54:06;;;;;;;55.80;15.07;;;5.70;99.90;;;;;;6269387;23;20044;-66
2022/12/26 05:56:37;;;;;;;36.60;14.15;;;5.70;99.90;;;;;;6294616;23;20042;-66
2022/12/26 05:59:09;;;;;;;76.03;15.43;;;5.80;99.90;;;;;;6371006;23;20016;-66
2022/12/26 06:01:45;;;;;;;55.28;13.65;;;5.80;99.90;;;;;;6420154;23;20010;-66
2022/12/26 06:04:16;;;;;;;43.25;13.57;;;5.70;99.90;;;;;;6282381;23;20413;-67
2022/12/26 06:06:47;;;;;;;38.88;13.93;;;5.70;99.90;;;;;;6315944;23;20004;-69
2022/12/26 06:09:27;;;;;;;80.55;15.68;;;5.70;99.90;;;;;;6293676;23;20010;-67
2022/12/26 06:12:01;;;;;;;54.50;14.23;;;5.70;99.90;;;;;;6395749;23;20089;-67
2022/12/26 06:14:33;;;;;;;92.13;13.90;;;5.70;99.90;;;;;;6304652;23;20050;-66
2022/12/26 06:17:10;;;;;;;27.30;12.10;;;5.60;99.90;;;;;;6395194;23;20012;-66
2022/12/26 06:19:47;;;;;;;25.17;13.18;;;5.60;99.90;;;;;;6294195;23;20023;-67
2022/12/26 06:22:18;;;;;;;55.20;13.98;;;5.70;99.90;;;;;;6293364;23;20005;-67
2022/12/26 06:24:49;;;;;;;124.13;14.75;;;5.60;99.90;;;;;;6396609;23;20002;-68
2022/12/26 06:27:21;;;;;;;30.80;12.48;;;5.60;99.90;;;;;;6293120;23;19994;-65
2022/12/26 06:29:54;;;;;;;27.88;12.55;;;5.50;99.90;;;;;;6421429;23;20568;-66
2022/12/26 06:32:29;;;;;;;70.13;13.02;;;5.60;99.90;;;;;;6292621;23;19994;-67
2022/12/26 06:35:00;;;;;;;42.97;13.63;;;5.40;99.90;;;;;;6270022;23;20220;-66
2022/12/26 06:37:34;;;;;;;53.65;13.18;;;5.40;99.90;;;;;;6269437;23;20000;-67
2022/12/26 06:40:14;;;;;;;115.43;15.50;;;5.30;99.90;;;;;;6269512;23;20006;-67
2022/12/26 06:42:48;;;;;;;97.93;15.02;;;5.30;99.90;;;;;;6293917;23;20004;-66
2022/12/26 06:45:21;;;;;;;75.82;14.23;;;5.20;99.90;;;;;;6294542;23;19998;-68
2022/12/26 06:47:54;;;;;;;41.25;14.38;;;5.20;99.90;;;;;;6295475;23;20297;-66
2022/12/26 06:50:28;;;;;;;53.28;13.70;;;5.10;99.90;;;;;;6295046;23;20383;-68
2022/12/26 06:52:59;;;;;;;78.80;13.85;;;5.00;99.90;;;;;;6396309;23;20003;-65
2022/12/26 06:55:35;;;;;;;56.45;14.60;;;5.10;99.90;;;;;;6269265;23;20059;-65
2022/12/26 06:58:14;;;;;;;49.17;15.68;;;5.10;99.90;;;;;;6396581;23;20207;-65
2022/12/26 07:00:50;;;;;;;39.40;14.05;;;5.20;99.90;;;;;;6294240;23;20355;-65
2022/12/26 07:03:30;;;;;;;48.03;13.60;;;5.20;99.90;;;;;;6291920;23;20006;-68
2022/12/26 07:06:33;;;;;;;44.60;13.90;;;5.10;99.90;;;;;;6254556;23;20010;-68
2022/12/26 07:09:08;;;;;;;31.27;13.15;;;5.10;99.90;;;;;;6287772;23;20354;-67
2022/12/26 07:11:43;;;;;;;;;;;5.10;99.90;;;;;;6293328;23;20002;-66
2022/12/26 07:14:19;;;;;;;29.17;13.23;;;5.30;99.90;;;;;;6295645;23;19956;-65
2022/12/26 07:16:53;;;;;;;36.15;14.85;;;5.30;99.90;;;;;;6293122;23;19998;-65
2022/12/26 07:19:27;;;;;;;44.90;13.45;;;5.40;99.90;;;;;;6291962;23;20511;-66
2022/12/26 07:22:01;;;;;;;46.42;13.70;;;5.40;99.90;;;;;;6315873;23;20487;-65
2022/12/26 07:24:32;;;;;;;32.75;13.30;;;5.30;99.90;;;;;;6297361;22;20362;-67
2022/12/26 07:27:06;;;;;;;46.25;14.20;;;5.20;99.90;;;;;;6295343;23;20584;-66
2022/12/26 07:29:40;;;;;;;129.18;15.43;;;5.20;99.90;;;;;;6292952;23;20000;-67
2022/12/26 07:32:12;;;;;;;25.08;13.40;;;5.30;99.90;;;;;;6293613;23;20354;-67
2022/12/26 07:34:46;;;;;;;26.67;13.80;;;5.40;99.90;;;;;;6293906;23;20054;-67
2022/12/26 07:37:19;;;;;;;47.15;15.82;;;5.40;99.90;;;;;;6268950;23;20066;-66
2022/12/26 07:39:50;;;;;;;33.78;14.77;;;5.40;99.90;;;;;;6293549;23;20032;-66
2022/12/26 07:42:21;;;;;;;35.95;13.63;;;5.50;99.90;;;;;;6291611;23;20032;-66
2022/12/26 07:44:52;;;;;;;56.97;14.70;;;5.40;99.90;;;;;;6394944;23;20046;-68
2022/12/26 07:47:29;;;;;;;38.78;14.05;;;5.40;99.90;;;;;;6293275;23;19990;-67
2022/12/26 07:50:00;;;;;;;56.03;14.85;;;5.50;99.90;;;;;;6294626;23;20038;-67
2022/12/26 07:52:37;;;;;;;27.05;14.38;;;5.50;99.90;;;;;;6316884;23;20054;-66
2022/12/26 07:55:11;;;;;;;29.67;13.93;;;5.60;99.90;;;;;;6294552;23;20488;-65
2022/12/26 07:57:48;;;;;;;25.30;14.48;;;5.50;99.90;;;;;;6293452;23;20042;-67
2022/12/26 08:00:19;;;;;;;20.30;11.93;;;5.40;99.90;;;;;;6293380;23;20006;-67
2022/12/26 08:02:52;;;;;;;23.30;13.00;;;5.40;99.90;;;;;;6393650;22;20355;-66
2022/12/26 08:05:29;;;;;;;25.40;13.50;;;5.40;99.90;;;;;;6361952;23;20061;-69
2022/12/26 08:08:00;;;;;;;24.65;14.45;;;5.50;99.90;;;;;;6291914;23;20031;-67
2022/12/26 08:10:34;;;;;;;24.77;13.05;;;5.50;99.90;;;;;;6315705;23;20002;-69
2022/12/26 08:13:05;;;;;;;23.63;14.13;;;5.50;99.90;;;;;;6293870;23;20038;-69
2022/12/26 08:15:38;;;;;;;26.15;14.45;;;5.60;99.90;;;;;;6291362;23;20031;-67
2022/12/26 08:18:09;;;;;;;23.50;13.20;;;5.50;99.90;;;;;;6419329;23;20003;-68
2022/12/26 08:20:43;;;;;;;29.48;15.00;;;5.40;99.90;;;;;;6291842;23;20009;-68
2022/12/26 08:23:16;;;;;;;23.52;13.43;;;5.40;99.90;;;;;;6316561;23;20013;-66
2022/12/26 08:25:48;;;;;;;24.05;14.85;;;5.50;99.90;;;;;;6419807;23;20025;-66
2022/12/26 08:28:19;;;;;;;25.58;13.57;;;5.50;99.90;;;;;;6293133;23;20009;-68
2022/12/26 08:30:55;;;;;;;25.77;13.90;;;5.50;99.90;;;;;;6418962;23;19990;-67
2022/12/26 08:33:26;;;;;;;24.17;13.25;;;5.40;99.90;;;;;;6268162;23;19995;-66
2022/12/26 08:36:05;;;;;;;27.60;12.93;;;5.50;99.90;;;;;;6290711;23;20012;-67
2022/12/26 08:38:39;;;;;;;25.95;13.88;;;5.50;99.90;;;;;;6292187;23;19991;-67
2022/12/26 08:41:13;;;;;;;26.02;14.30;;;5.70;99.90;;;;;;6292425;23;20011;-68
2022/12/26 08:43:52;;;;;;;26.03;14.43;;;5.70;99.90;;;;;;6314826;23;20007;-66
2022/12/26 08:46:29;;;;;;;23.80;14.85;;;6.00;99.90;;;;;;6393762;23;20542;-66
2022/12/26 08:49:03;;;;;;;26.15;13.30;;;6.20;99.90;;;;;;6292908;23;20058;-69
2022/12/26 08:51:35;;;;;;;24.98;14.68;;;6.50;99.90;;;;;;6393056;23;20009;-69
2022/12/26 08:54:06;;;;;;;23.90;14.38;;;6.70;99.90;;;;;;6291173;23;20511;-69
2022/12/26 08:56:38;;;;;;;24.17;14.05;;;6.90;99.90;;;;;;6418514;22;20184;-69
2022/12/26 08:59:09;;;;;;;32.83;14.55;;;7.00;99.90;;;;;;6268518;23;20195;-67
2022/12/26 09:01:40;;;;;;;23.08;14.35;;;7.20;99.90;;;;;;6291110;23;20006;-69
2022/12/26 09:04:11;;;;;;;30.75;14.00;;;7.30;99.90;;;;;;6254715;23;20175;-67
2022/12/26 09:06:43;;;;;;;23.00;13.75;;;7.30;99.90;;;;;;6315716;23;20446;-67
2022/12/26 09:09:14;;;;;;;25.25;13.88;;;7.40;99.90;;;;;;6394422;23;20006;-67
2022/12/26 09:11:45;;;;;;;21.92;13.18;;;7.30;99.90;;;;;;6315281;23;20001;-66
2022/12/26 09:14:17;;;;;;;24.40;13.07;;;7.60;99.90;;;;;;6392582;23;20080;-67
2022/12/26 09:16:49;;;;;;;23.10;14.15;;;7.80;99.90;;;;;;6419039;23;19995;-67
2022/12/26 09:19:20;;;;;;;23.98;13.90;;;7.90;99.90;;;;;;6268899;23;20021;-68
2022/12/26 09:22:49;;;;;;;26.50;15.45;;;8.20;99.90;;;;;;6290702;23;20017;-69
2022/12/26 09:24:45;;;;;;;26.35;12.90;;;8.30;99.90;;;;;;6293174;23;20367;-65
2022/12/26 09:27:17;;;;;;;25.25;14.32;;;8.40;99.90;;;;;;6292485;23;20005;-67
2022/12/26 09:29:50;;;;;;;23.00;13.15;;;8.50;99.90;;;;;;6291145;23;20462;-66
2022/12/26 09:32:21;;;;;;;21.52;12.10;;;8.60;99.90;;;;;;6291535;23;20458;-66
2022/12/26 09:34:53;;;;;;;19.63;12.23;;;8.60;99.90;;;;;;6293135;23;20409;-65
2022/12/26 09:37:25;;;;;;;22.17;13.30;;;8.70;99.90;;;;;;6295434;23;20059;-66
2022/12/26 09:40:03;;;;;;;21.20;13.52;;;8.80;99.90;;;;;;6290770;23;20020;-66
2022/12/26 09:42:44;;;;;;;28.02;14.98;;;8.80;99.90;;;;;;6395234;23;20207;-65
2022/12/26 09:45:20;;;;;;;20.05;13.02;;;8.70;99.90;;;;;;6291806;23;19998;-67
2022/12/26 09:48:20;;;;;;;21.30;13.15;;;8.70;99.90;;;;;;6418920;23;20416;-64
2022/12/26 09:50:52;;;;;;;20.48;13.27;;;8.60;99.90;;;;;;6292088;23;20000;-65
2022/12/26 09:53:31;;;;;;;21.52;13.27;;;8.50;99.90;;;;;;6290937;23;20053;-65
2022/12/26 09:56:06;;;;;;;22.77;14.23;;;8.60;99.90;;;;;;6418640;22;20002;-67
2022/12/26 09:58:43;;;;;;;21.52;13.57;;;8.80;99.90;;;;;;6292783;23;19991;-66
2022/12/26 10:01:33;;;;;;;19.90;13.05;;;9.00;99.90;;;;;;6290086;23;20014;-65
2022/12/26 10:04:09;;;;;;;24.25;15.10;;;9.10;99.90;;;;;;6291357;23;20010;-66
2022/12/26 10:06:49;;;;;;;21.40;13.48;;;9.30;99.90;;;;;;6356239;23;20531;-67
2022/12/26 10:09:28;;;;;;;24.75;14.93;;;9.40;99.90;;;;;;6396152;23;20311;-67
2022/12/26 10:12:17;;;;;;;29.48;16.00;;;9.50;99.90;;;;;;6269202;23;20008;-65
2022/12/26 10:15:16;;;;;;;22.98;14.48;;;9.20;99.90;;;;;;6294326;23;19991;-68
2022/12/26 10:18:10;;;;;;;23.65;13.88;;;9.20;99.90;;;;;;6294170;23;20054;-65
2022/12/26 10:21:03;;;;;;;21.70;13.48;;;9.30;99.90;;;;;;6395276;23;20352;-65
2022/12/26 10:24:00;;;;;;;23.95;13.88;;;9.50;99.90;;;;;;6294251;23;20073;-68
2022/12/26 10:26:32;;;;;;;22.33;13.32;;;9.60;99.90;;;;;;6292396;23;20058;-69
2022/12/26 10:29:09;;;;;;;22.02;14.23;;;9.30;99.90;;;;;;6268150;23;19994;-66
2022/12/26 10:32:00;;;;;;;22.70;14.02;;;9.00;99.90;;;;;;6293647;23;20057;-64
2022/12/26 10:34:47;;;;;;;27.13;14.48;;;9.10;99.90;;;;;;6316784;23;20306;-68
2022/12/26 10:37:35;;;;;;;23.83;14.77;;;9.30;99.90;;;;;;6421118;23;20005;-67
2022/12/26 10:40:30;;;;;;;24.70;14.95;;;9.70;99.90;;;;;;6396990;23;20003;-64
2022/12/26 10:43:29;;;;;;;27.97;16.03;;;9.70;99.90;;;;;;6292802;23;19991;-69
2022/12/26 10:46:23;;;;;;;24.42;14.75;;;9.90;99.90;;;;;;6293591;23;20065;-66
2022/12/26 10:48:59;;;;;;;22.58;14.35;;;9.90;99.90;;;;;;6294060;23;20061;-67
2022/12/26 10:51:33;;;;;;;28.20;16.15;;;9.60;99.90;;;;;;6294775;23;20244;-67
2022/12/26 10:54:15;;;;;;;25.50;14.00;;;9.40;99.90;;;;;;6292672;23;20002;-64
2022/12/26 10:56:49;;;;;;;23.10;14.32;;;9.40;99.90;;;;;;6313950;23;20014;-67
2022/12/26 10:59:35;;;;;;;24.17;14.18;;;9.70;99.90;;;;;;6292482;23;20386;-66
2022/12/26 11:02:23;;;;;;;24.80;14.20;;;10.00;99.90;;;;;;6395616;22;20450;-64
2022/12/26 11:05:13;;;;;;;25.75;14.85;;;10.50;99.90;;;;;;6254418;23;20436;-67
2022/12/26 11:07:58;;;;;;;26.83;14.80;;;10.80;99.90;;;;;;6281495;23;20008;-67
2022/12/26 11:10:30;;;;;;;22.80;13.48;;;11.10;99.90;;;;;;6293981;23;20009;-66
2022/12/26 11:13:17;;;;;;;23.38;14.18;;;11.40;99.90;;;;;;6289690;23;19999;-68
2022/12/26 11:15:51;;;;;;;23.63;15.50;;;11.30;99.90;;;;;;6419234;23;19998;-67
2022/12/26 11:18:49;;;;;;;23.70;15.13;;;11.20;99.90;;;;;;6303496;23;20435;-65
2022/12/26 11:21:27;;;;;;;24.40;15.75;;;11.00;99.90;;;;;;6292386;23;20455;-67
2022/12/26 11:24:08;;;;;;;22.95;13.98;;;10.70;99.90;;;;;;6320491;23;20049;-65
2022/12/26 11:26:39;;;;;;;22.95;13.93;;;10.90;99.90;;;;;;6304388;23;20062;-67
2022/12/26 11:29:12;;;;;;;22.80;14.52;;;10.50;99.90;;;;;;6316913;23;20447;-67
2022/12/26 11:31:58;;;;;;;24.08;15.15;;;10.40;99.90;;;;;;6290873;23;20486;-67
2022/12/26 11:34:46;;;;;;;25.90;15.10;;;10.50;99.90;;;;;;6290671;23;20001;-66
2022/12/26 11:37:28;;;;;;;20.75;13.57;;;10.60;99.90;;;;;;6293293;23;20045;-66
2022/12/26 11:40:00;;;;;;;23.58;14.82;;;10.80;99.90;;;;;;6368757;23;20214;-67
2022/12/26 11:42:31;;;;;;;21.48;14.43;;;11.10;99.90;;;;;;6294204;23;20002;-65
2022/12/26 11:45:13;;;;;;;22.50;14.13;;;11.10;99.90;;;;;;6295029;23;20220;-67
2022/12/26 11:47:47;;;;;;;24.55;14.05;;;11.10;99.90;;;;;;6418912;23;20303;-68
2022/12/26 11:50:21;;;;;;;21.27;15.18;;;11.00;99.90;;;;;;6420640;22;20190;-69
2022/12/26 11:53:05;;;;;;;24.30;14.48;;;11.20;99.90;;;;;;6394597;23;20236;-69
2022/12/26 11:55:38;;;;;;;22.30;15.47;;;11.60;99.90;;;;;;6301062;23;20001;-65
2022/12/26 11:58:16;;;;;;;24.67;16.35;;;12.10;99.90;;;;;;6292459;23;20059;-68
2022/12/26 12:00:53;;;;;;;26.58;15.50;;;11.70;99.90;;;;;;6294219;23;20010;-66
2022/12/26 12:03:42;;;;;;;20.30;14.05;;;11.70;99.90;;;;;;6314742;23;20013;-67
2022/12/26 12:06:48;;;;;;;22.10;14.05;;;11.60;99.90;;;;;;6302990;23;20021;-66
2022/12/26 12:09:26;;;;;;;19.15;13.57;;;11.50;99.90;;;;;;6294432;23;19999;-67
2022/12/26 12:12:12;;;;;;;20.20;13.07;;;11.80;99.90;;;;;;6291789;23;20002;-66
2022/12/26 12:15:08;;;;;;;17.45;12.18;;;11.10;99.90;;;;;;6292835;23;20005;-65
2022/12/26 12:17:40;;;;;;;17.70;12.13;;;11.10;99.90;;;;;;6395231;23;20412;-66
2022/12/26 12:20:30;;;;;;;16.85;11.38;;;10.70;99.90;;;;;;6316431;23;20010;-69
2022/12/26 12:23:26;;;;;;;17.13;12.63;;;10.50;99.90;;;;;;6269613;23;20539;-67
2022/12/26 12:26:07;;;;;;;17.00;11.60;;;10.80;99.90;;;;;;6292187;23;20480;-65
2022/12/26 12:29:13;;;;;;;18.58;12.05;;;10.80;99.90;;;;;;6419406;23;20028;-69
2022/12/26 12:31:56;;;;;;;16.67;11.98;;;11.20;99.90;;;;;;6293798;23;20003;-67
2022/12/26 12:34:55;;;;;;;19.05;12.38;;;11.80;99.90;;;;;;6294051;23;19994;-67
2022/12/26 12:38:34;;;;;;;17.00;12.13;;;11.90;99.90;;;;;;6269183;23;20004;-64
2022/12/26 12:41:26;;;;;;;18.10;12.32;;;11.70;99.90;;;;;;6285546;23;20003;-66
2022/12/26 12:44:11;;;;;;;14.15;10.38;;;11.70;99.90;;;;;;6290934;23;20309;-68
2022/12/26 12:46:48;;;;;;;13.60;11.35;;;12.10;99.90;;;;;;6290226;23;20122;-68
2022/12/26 12:49:51;;;;;;;14.10;10.80;;;12.40;99.90;;;;;;6267651;23;20109;-68
2022/12/26 12:52:48;;;;;;;13.13;10.20;;;12.80;99.90;;;;;;6292556;23;20001;-69
2022/12/26 12:55:40;;;;;;;14.02;10.18;;;12.90;99.90;;;;;;6293495;23;20058;-66
2022/12/26 12:58:20;;;;;;;17.35;11.95;;;12.80;99.90;;;;;;6315851;23;20006;-65
2022/12/26 13:00:59;;;;;;;15.35;11.15;;;12.80;99.90;;;;;;6292270;23;20002;-67
2022/12/26 13:03:46;;;;;;;16.20;11.25;;;12.80;99.90;;;;;;6291461;23;20477;-67
2022/12/26 13:06:42;;;;;;;13.77;10.70;;;12.50;99.90;;;;;;6254345;23;20015;-67
2022/12/26 13:09:43;;;;;;;17.50;11.80;;;12.30;99.90;;;;;;6293724;23;20050;-66
2022/12/26 13:12:20;;;;;;;14.68;11.35;;;11.60;99.90;;;;;;6293685;23;20059;-66
2022/12/26 13:14:57;;;;;;;14.82;10.85;;;11.50;99.90;;;;;;6294380;23;20002;-67
2022/12/26 13:17:40;;;;;;;16.73;11.32;;;11.10;99.90;;;;;;6294094;23;20001;-67
2022/12/26 13:20:21;;;;;;;15.75;11.05;;;10.90;99.90;;;;;;6292842;23;20003;-66
2022/12/26 13:26:14;;;;;;;14.48;10.77;;;11.00;99.90;;;;;;6292592;23;20002;-65
2022/12/26 13:29:03;;;;;;;15.60;10.70;;;11.30;99.90;;;;;;6293213;23;20017;-67
2022/12/26 13:31:42;;;;;;;14.90;10.38;;;11.40;99.90;;;;;;6294125;23;20057;-65
2022/12/26 13:34:22;;;;;;;13.20;9.50;;;11.60;99.90;;;;;;6394219;23;20059;-65
2022/12/26 13:36:59;;;;;;;14.27;10.43;;;11.70;99.90;;;;;;6291786;23;20052;-68
2022/12/26 13:39:41;;;;;;;14.80;11.15;;;11.80;99.90;;;;;;6295431;23;20001;-65
2022/12/26 13:45:39;;;;;;;14.77;10.95;;;12.50;99.90;;;;;;6304850;23;20000;-65
2022/12/26 13:48:28;;;;;;;15.27;11.07;;;12.90;99.90;;;;;;6317721;23;20409;-66
2022/12/26 13:51:04;;;;;;;13.57;10.85;;;12.80;99.90;;;;;;6295060;23;20012;-66
2022/12/26 13:53:42;;;;;;;15.20;11.23;;;12.90;99.90;;;;;;6294462;23;20046;-67
2022/12/26 13:56:16;;;;;;;13.80;10.50;;;12.50;99.90;;;;;;6294501;23;20061;-65
2022/12/26 13:59:19;;;;;;;14.18;11.32;;;12.30;99.90;;;;;;6292584;23;19998;-68
2022/12/26 14:01:56;;;;;;;17.02;11.68;;;12.20;99.90;;;;;;6293972;23;20006;-64
2022/12/26 14:04:48;;;;;;;15.63;11.77;;;11.90;99.90;;;;;;6258244;23;20001;-67
2022/12/26 14:07:38;;;;;;;17.58;11.98;;;11.80;99.90;;;;;;6309898;23;20162;-66
2022/12/26 14:10:19;;;;;;;16.60;11.68;;;11.60;99.90;;;;;;6317584;23;20010;-65
2022/12/26 14:12:54;;;;;;;16.77;11.35;;;11.30;99.90;;;;;;6269240;23;20002;-66
2022/12/26 14:15:29;;;;;;;17.30;11.27;;;11.20;99.90;;;;;;6295646;23;20329;-68
2022/12/26 14:18:15;;;;;;;17.95;12.43;;;10.90;99.90;;;;;;6316679;23;20322;-69
2022/12/26 14:20:53;;;;;;;17.83;11.70;;;10.70;99.90;;;;;;6269297;23;20009;-66
2022/12/26 14:24:02;;;;;;;17.73;11.25;;;10.70;99.90;;;;;;6294810;23;20157;-67
2022/12/26 14:26:50;;;;;;;14.95;11.20;;;10.60;99.90;;;;;;6269839;23;20005;-66
2022/12/26 14:29:38;;;;;;;18.05;12.82;;;10.40;99.90;;;;;;6270725;23;19995;-66
2022/12/26 14:32:30;;;;;;;19.00;12.45;;;10.20;99.90;;;;;;6269541;23;20066;-68
2022/12/26 14:35:31;;;;;;;18.45;12.02;;;10.00;99.90;;;;;;6294932;23;20061;-65
2022/12/26 14:38:33;;;;;;;16.48;11.90;;;9.90;99.90;;;;;;6295768;23;20002;-67
2022/12/26 14:44:16;;;;;;;16.13;12.13;;;9.60;99.90;;;;;;6293944;23;19995;-68
2022/12/26 14:46:51;;;;;;;17.50;12.13;;;9.40;99.90;;;;;;6396634;23;20062;-68
2022/12/26 14:49:24;;;;;;;17.92;12.35;;;9.40;99.90;;;;;;6295157;23;20045;-65
2022/12/26 14:52:24;;;;;;;14.27;11.10;;;9.20;99.90;;;;;;6316163;23;20006;-65
2022/12/26 14:54:59;;;;;;;16.35;12.38;;;9.20;99.90;;;;;;6295579;23;20054;-65
2022/12/26 14:57:47;;;;;;;16.60;11.98;;;9.10;99.90;;;;;;6292937;23;20014;-66
2022/12/26 15:00:21;;;;;;;16.27;12.70;;;9.00;99.90;;;;;;6294853;23;20304;-64
2022/12/26 15:03:00;;;;;;;16.00;12.20;;;9.00;99.90;;;;;;6293827;23;20427;-67
2022/12/26 15:05:36;;;;;;;17.92;12.43;;;8.90;99.90;;;;;;6254997;23;20462;-68
2022/12/26 15:08:40;;;;;;;18.80;13.35;;;8.90;99.90;;;;;;6287583;23;20008;-66
2022/12/26 15:11:32;;;;;;;17.38;11.63;;;8.80;99.90;;;;;;6422341;22;20089;-67
2022/12/26 15:14:39;;;;;;;19.58;12.93;;;8.70;99.90;;;;;;6296444;23;20547;-65
2022/12/26 15:17:34;;;;;;;16.73;11.90;;;8.60;99.90;;;;;;6317515;23;20568;-66
2022/12/26 15:20:24;;;;;;;20.00;13.30;;;8.60;99.90;;;;;;6292797;23;20173;-67
2022/12/26 15:23:24;;;;;;;20.65;13.15;;;8.60;99.90;;;;;;6296053;23;20004;-69
2022/12/26 15:26:29;;;;;;;19.23;13.02;;;8.50;99.90;;;;;;6278691;23;20014;-68
2022/12/26 15:29:16;;;;;;;18.40;13.60;;;8.40;99.90;;;;;;6317707;23;20057;-68
2022/12/26 15:32:16;;;;;;;20.95;13.18;;;8.40;99.90;;;;;;6270159;23;20005;-70
2022/12/26 15:35:17;;;;;;;21.48;14.15;;;8.40;99.90;;;;;;6294549;23;20004;-69
2022/12/26 15:37:51;;;;;;;18.55;12.68;;;8.30;99.90;;;;;;6294570;23;20050;-67
2022/12/26 15:40:26;;;;;;;20.38;13.68;;;8.30;99.90;;;;;;6301585;23;20025;-68
2022/12/26 15:43:15;;;;;;;19.80;13.45;;;8.30;99.90;;;;;;6266790;23;19999;-68
2022/12/26 15:46:09;;;;;;;20.67;13.70;;;8.20;99.90;;;;;;6316620;23;20007;-68
2022/12/26 15:49:05;;;;;;;26.27;15.43;;;8.10;99.90;;;;;;6293260;23;20003;-67
2022/12/26 15:51:57;;;;;;;29.13;17.63;;;7.90;99.90;;;;;;6269601;23;20069;-67
2022/12/26 15:55:02;;;;;;;27.98;16.65;;;7.90;99.90;;;;;;6293175;23;20672;-65